Alpena, MI

1:13 AM EST on February 10, 2016 (GMT -0500)
APRSWXNET | | Change Station
CLOSE
Current Station
Personal Weather Station
Location: Alpena, MI
Elevation: 593 ft
Nearby Weather Stations

Elev 593 ft 45.05 °N, 83.45 °W | Updated 16 minutes ago

Snow
Snow
19 °F
Feels Like 12 °F
N
5
Wind Variable Wind from NNW
Gusts 11.0 mph

Today
High -- | Low -- °F
--% Chance of Precip.
Yesterday
High -- | Low -- °F
Precip. -- in
Pressure 29.67 in
Visibility 1.8 miles
Clouds Mostly Cloudy 2300 ft
Overcast 3000 ft
Windchill 12 °F
Dew Point 16 °F
Humidity 89%
Rainfall in
Snow Depth Not available.
7:42 AM 5:53 PM
Waxing Crescent, 4% visible
SPECI KAPN 100610Z AUTO 34010KT 1 3/4SM -SN BR BKN023 OVC030 M08/M10 A2967 RMK AO2 P0000 T10781100
Pressure 29.67 in
Visibility 1.8 miles
Clouds Mostly Cloudy 2300 ft
Overcast 3000 ft
Windchill 12 °F
Dew Point 16 °F
Humidity 89%
Rainfall in
Snow Depth Not available.
7:42 AM 5:53 PM
Waxing Crescent, 4% visible
SPECI KAPN 100610Z AUTO 34010KT 1 3/4SM -SN BR BKN023 OVC030 M08/M10 A2967 RMK AO2 P0000 T10781100

10-Day Weather Forecast

Almanac

Astronomy

Feb. 10, 2016 Rise Set
Actual Time
Civil Twilight
Nautical Twilight
Astronomical Twilight
Moon
Length of Visible Light
Length of Day
Tomorrow will be .
, % of the Moon is Illuminated

Today's Extremes

State Highs State Lows

Community

WunderPhotos

Upload Photos

1,891,826 photos uploaded!

WunderBlog® & News

Nearby

Air Quality

  Air Quality AQ Index Pollutant
Not available.

Snow Depth

Station Depth Elevation

Earthquake Activity

City Distance Mag. Time & Date
Minimum magnitude displayed is 2.5.

Coastal Water Temperatures

Place Temperature

Stations

Nearby Weather Stations

Station Location Temp. Windchill Dew Point Humidity Wind Precip. Elev Updated Type
                   

Watches & Warnings

There are currently no watches in effect.